Marshall, WI (53559)

12:37 AM CDT on September 02, 2015 (GMT -0500)
Muller Rd | | Change Station
CLOSE
Current Station
Personal Weather Station
Location: Sun Prairie, WI
Elevation: 928 ft
Nearby Weather Stations

Elev 928 ft 43.25 °N, 89.13 °W | Updated 9 seconds ago

Clear
Clear
72.1 °F
Feels Like 72.1 °F
N
0.0
Wind Variable Wind from South
Gusts 1.0 mph

Today
High -- | Low -- °F
--% Chance of Precip.
Yesterday
High -- | Low -- °F
Precip. -- in
6:21 AM 7:29 PM
Waning Gibbous, 83% visible
Pressure 29.98 in
Visibility 10.0 miles
Clouds Clear
Dew Point 71 °F
Humidity 96%
Rainfall 0.00 in
Snow Depth Not available.
UV 0 out of 12
Pollen 10.80 out of 12
Air Quality Not available.
Flu Activity Not available.
METAR KMSN 020453Z AUTO 21004KT 10SM CLR 25/22 A2999 RMK AO2 SLP150 T02500217
Pressure 29.98 in
Visibility 10.0 miles
Clouds Clear
Dew Point 71 °F
Humidity 96%
Rainfall 0.00 in
Snow Depth Not available.
UV 0 out of 12
Pollen 10.80 out of 12
Air Quality Not available.
Flu Activity Not available.
METAR KMSN 020453Z AUTO 21004KT 10SM CLR 25/22 A2999 RMK AO2 SLP150 T02500217

10-Day Weather Forecast

×

Almanac

Astronomy

Sep. 02, 2015 Rise Set
Actual Time
Civil Twilight
Nautical Twilight
Astronomical Twilight
Moon
Length of Visible Light
Length of Day
Tomorrow will be .
, % of the Moon is Illuminated

Today's Extremes

State Highs State Lows

Community

WunderPhotos

Upload Photos

1,851,709 photos uploaded!

WunderBlogs® & News

Nearby

Air Quality

  Air Quality AQ Index Pollutant
Not available.

Snow Depth

Station Depth Elevation

Earthquake Activity

City Distance Mag. Time & Date
Minimum magnitude displayed is 2.5.

Coastal Water Temperatures

Place Temperature

Stations

Nearby Weather Stations

Station Location Temp. Windchill Dew Point Humidity Wind Precip. Elev Updated Type